sensor_id;sensor_type;location;lat;lon;timestamp;P1;durP1;ratioP1;P2;durP2;ratioP2
25359;SDS011;13311;51.386;0.016;2023-12-22T00:04:16;23.30;;;6.82;;
25359;SDS011;13311;51.386;0.016;2023-12-22T00:09:17;27.43;;;6.17;;
25359;SDS011;13311;51.386;0.016;2023-12-22T00:14:17;33.28;;;5.85;;
25359;SDS011;13311;51.386;0.016;2023-12-22T00:19:18;23.38;;;4.95;;
25359;SDS011;13311;51.386;0.016;2023-12-22T00:24:19;16.48;;;5.03;;
25359;SDS011;13311;51.386;0.016;2023-12-22T00:29:19;19.23;;;5.22;;
25359;SDS011;13311;51.386;0.016;2023-12-22T00:34:21;19.58;;;4.88;;
25359;SDS011;13311;51.386;0.016;2023-12-22T00:39:22;20.15;;;4.28;;
25359;SDS011;13311;51.386;0.016;2023-12-22T00:44:23;18.67;;;5.05;;
25359;SDS011;13311;51.386;0.016;2023-12-22T00:49:27;20.70;;;4.88;;
25359;SDS011;13311;51.386;0.016;2023-12-22T00:54:28;21.05;;;4.82;;
25359;SDS011;13311;51.386;0.016;2023-12-22T00:59:30;13.23;;;3.80;;
25359;SDS011;13311;51.386;0.016;2023-12-22T01:04:31;18.42;;;4.70;;
25359;SDS011;13311;51.386;0.016;2023-12-22T01:09:32;17.10;;;4.57;;
25359;SDS011;13311;51.386;0.016;2023-12-22T01:14:33;19.33;;;4.03;;
25359;SDS011;13311;51.386;0.016;2023-12-22T01:19:34;15.68;;;4.15;;
25359;SDS011;13311;51.386;0.016;2023-12-22T01:24:34;14.68;;;4.32;;
25359;SDS011;13311;51.386;0.016;2023-12-22T01:29:39;10.68;;;3.15;;
25359;SDS011;13311;51.386;0.016;2023-12-22T01:34:40;13.65;;;2.72;;
25359;SDS011;13311;51.386;0.016;2023-12-22T01:39:41;11.82;;;2.70;;
25359;SDS011;13311;51.386;0.016;2023-12-22T01:44:42;7.55;;;1.90;;
25359;SDS011;13311;51.386;0.016;2023-12-22T01:49:42;4.03;;;1.63;;
25359;SDS011;13311;51.386;0.016;2023-12-22T01:54:43;7.32;;;1.80;;
25359;SDS011;13311;51.386;0.016;2023-12-22T01:59:45;6.72;;;1.55;;
25359;SDS011;13311;51.386;0.016;2023-12-22T02:04:48;7.57;;;1.40;;
25359;SDS011;13311;51.386;0.016;2023-12-22T02:09:49;7.30;;;1.50;;
25359;SDS011;13311;51.386;0.016;2023-12-22T02:14:50;7.85;;;1.48;;
25359;SDS011;13311;51.386;0.016;2023-12-22T02:19:51;5.47;;;1.20;;
25359;SDS011;13311;51.386;0.016;2023-12-22T02:24:53;4.07;;;1.58;;
25359;SDS011;13311;51.386;0.016;2023-12-22T02:30:10;9.23;;;1.80;;
25359;SDS011;13311;51.386;0.016;2023-12-22T02:35:24;6.80;;;1.70;;
25359;SDS011;13311;51.386;0.016;2023-12-22T02:40:27;7.07;;;1.60;;
25359;SDS011;13311;51.386;0.016;2023-12-22T02:45:28;10.32;;;2.22;;
25359;SDS011;13311;51.386;0.016;2023-12-22T02:50:30;6.97;;;1.95;;
25359;SDS011;13311;51.386;0.016;2023-12-22T02:55:31;8.73;;;2.40;;
25359;SDS011;13311;51.386;0.016;2023-12-22T03:00:31;11.13;;;2.80;;
25359;SDS011;13311;51.386;0.016;2023-12-22T03:05:32;6.55;;;1.83;;
25359;SDS011;13311;51.386;0.016;2023-12-22T03:10:33;9.15;;;3.10;;
25359;SDS011;13311;51.386;0.016;2023-12-22T03:15:34;8.48;;;2.28;;
25359;SDS011;13311;51.386;0.016;2023-12-22T03:20:34;8.32;;;1.85;;
25359;SDS011;13311;51.386;0.016;2023-12-22T03:25:35;10.30;;;2.03;;
25359;SDS011;13311;51.386;0.016;2023-12-22T03:30:39;7.25;;;2.05;;
25359;SDS011;13311;51.386;0.016;2023-12-22T03:35:40;4.45;;;1.80;;
25359;SDS011;13311;51.386;0.016;2023-12-22T03:40:41;5.32;;;1.65;;
25359;SDS011;13311;51.386;0.016;2023-12-22T03:45:42;8.40;;;2.47;;
25359;SDS011;13311;51.386;0.016;2023-12-22T03:50:42;3.28;;;1.30;;
25359;SDS011;13311;51.386;0.016;2023-12-22T03:55:43;7.70;;;1.50;;
25359;SDS011;13311;51.386;0.016;2023-12-22T04:00:44;2.92;;;1.00;;
25359;SDS011;13311;51.386;0.016;2023-12-22T04:05:46;3.42;;;1.17;;
25359;SDS011;13311;51.386;0.016;2023-12-22T04:10:47;4.30;;;0.98;;
25359;SDS011;13311;51.386;0.016;2023-12-22T04:15:48;4.35;;;0.95;;
25359;SDS011;13311;51.386;0.016;2023-12-22T04:20:49;2.70;;;0.95;;
25359;SDS011;13311;51.386;0.016;2023-12-22T04:25:53;3.05;;;0.70;;
25359;SDS011;13311;51.386;0.016;2023-12-22T04:30:54;4.00;;;1.10;;
25359;SDS011;13311;51.386;0.016;2023-12-22T04:35:55;2.72;;;0.80;;
25359;SDS011;13311;51.386;0.016;2023-12-22T04:40:55;2.42;;;1.00;;
25359;SDS011;13311;51.386;0.016;2023-12-22T04:45:56;2.78;;;0.85;;
25359;SDS011;13311;51.386;0.016;2023-12-22T04:50:57;2.92;;;0.85;;
25359;SDS011;13311;51.386;0.016;2023-12-22T04:55:58;6.55;;;1.00;;
25359;SDS011;13311;51.386;0.016;2023-12-22T05:00:59;2.47;;;0.88;;
25359;SDS011;13311;51.386;0.016;2023-12-22T05:05:59;1.73;;;0.88;;
25359;SDS011;13311;51.386;0.016;2023-12-22T05:11:00;2.55;;;0.82;;
25359;SDS011;13311;51.386;0.016;2023-12-22T05:16:01;2.58;;;0.95;;
25359;SDS011;13311;51.386;0.016;2023-12-22T05:21:02;2.15;;;0.77;;
25359;SDS011;13311;51.386;0.016;2023-12-22T05:26:03;2.78;;;0.73;;
25359;SDS011;13311;51.386;0.016;2023-12-22T05:31:04;2.63;;;0.80;;
25359;SDS011;13311;51.386;0.016;2023-12-22T05:36:04;2.42;;;0.57;;
25359;SDS011;13311;51.386;0.016;2023-12-22T05:41:05;1.88;;;0.43;;
25359;SDS011;13311;51.386;0.016;2023-12-22T05:46:06;1.92;;;0.60;;
25359;SDS011;13311;51.386;0.016;2023-12-22T05:51:07;3.10;;;0.80;;
25359;SDS011;13311;51.386;0.016;2023-12-22T05:56:19;0.60;;;0.32;;
25359;SDS011;13311;51.386;0.016;2023-12-22T06:01:21;1.55;;;0.60;;
25359;SDS011;13311;51.386;0.016;2023-12-22T06:06:22;3.55;;;0.57;;
25359;SDS011;13311;51.386;0.016;2023-12-22T06:11:23;1.63;;;0.63;;
25359;SDS011;13311;51.386;0.016;2023-12-22T06:16:24;3.70;;;0.47;;
25359;SDS011;13311;51.386;0.016;2023-12-22T06:21:25;2.83;;;0.68;;
25359;SDS011;13311;51.386;0.016;2023-12-22T06:26:25;3.70;;;0.60;;
25359;SDS011;13311;51.386;0.016;2023-12-22T06:31:26;2.22;;;0.70;;
25359;SDS011;13311;51.386;0.016;2023-12-22T06:36:27;5.00;;;0.85;;
25359;SDS011;13311;51.386;0.016;2023-12-22T06:41:30;2.28;;;0.60;;
25359;SDS011;13311;51.386;0.016;2023-12-22T06:46:31;1.95;;;0.40;;
25359;SDS011;13311;51.386;0.016;2023-12-22T06:51:32;2.05;;;0.65;;
25359;SDS011;13311;51.386;0.016;2023-12-22T06:56:35;2.85;;;0.60;;
25359;SDS011;13311;51.386;0.016;2023-12-22T07:01:36;2.83;;;0.70;;
25359;SDS011;13311;51.386;0.016;2023-12-22T07:06:37;2.70;;;0.50;;
25359;SDS011;13311;51.386;0.016;2023-12-22T07:11:41;1.73;;;0.40;;
25359;SDS011;13311;51.386;0.016;2023-12-22T07:16:47;1.95;;;0.40;;
25359;SDS011;13311;51.386;0.016;2023-12-22T07:21:48;0.60;;;0.40;;
25359;SDS011;13311;51.386;0.016;2023-12-22T07:26:49;0.93;;;0.40;;
25359;SDS011;13311;51.386;0.016;2023-12-22T07:31:50;1.20;;;0.30;;
25359;SDS011;13311;51.386;0.016;2023-12-22T07:36:50;0.85;;;0.22;;
25359;SDS011;13311;51.386;0.016;2023-12-22T07:41:53;1.27;;;0.40;;
25359;SDS011;13311;51.386;0.016;2023-12-22T07:46:59;1.52;;;0.30;;
25359;SDS011;13311;51.386;0.016;2023-12-22T07:52:00;1.23;;;0.52;;
25359;SDS011;13311;51.386;0.016;2023-12-22T07:57:01;1.63;;;0.63;;
25359;SDS011;13311;51.386;0.016;2023-12-22T08:02:02;1.20;;;0.30;;
25359;SDS011;13311;51.386;0.016;2023-12-22T08:07:03;1.35;;;0.52;;
25359;SDS011;13311;51.386;0.016;2023-12-22T08:12:04;4.57;;;1.02;;
25359;SDS011;13311;51.386;0.016;2023-12-22T08:17:05;1.42;;;0.40;;
25359;SDS011;13311;51.386;0.016;2023-12-22T08:22:06;1.70;;;0.50;;
25359;SDS011;13311;51.386;0.016;2023-12-22T08:27:07;1.92;;;0.60;;
25359;SDS011;13311;51.386;0.016;2023-12-22T08:32:08;3.78;;;0.73;;
25359;SDS011;13311;51.386;0.016;2023-12-22T08:37:09;1.52;;;0.45;;
25359;SDS011;13311;51.386;0.016;2023-12-22T08:42:10;1.80;;;0.50;;
25359;SDS011;13311;51.386;0.016;2023-12-22T08:47:12;2.63;;;0.70;;
25359;SDS011;13311;51.386;0.016;2023-12-22T08:52:13;1.33;;;0.70;;
25359;SDS011;13311;51.386;0.016;2023-12-22T08:57:13;2.40;;;0.43;;
25359;SDS011;13311;51.386;0.016;2023-12-22T09:02:14;3.60;;;0.95;;
25359;SDS011;13311;51.386;0.016;2023-12-22T09:07:15;1.58;;;0.70;;
25359;SDS011;13311;51.386;0.016;2023-12-22T09:12:15;1.80;;;0.40;;
25359;SDS011;13311;51.386;0.016;2023-12-22T09:17:16;2.55;;;0.60;;
25359;SDS011;13311;51.386;0.016;2023-12-22T09:22:17;2.33;;;0.50;;
25359;SDS011;13311;51.386;0.016;2023-12-22T09:27:18;1.88;;;0.60;;
25359;SDS011;13311;51.386;0.016;2023-12-22T09:32:19;1.10;;;0.47;;
25359;SDS011;13311;51.386;0.016;2023-12-22T09:37:20;1.92;;;0.40;;
25359;SDS011;13311;51.386;0.016;2023-12-22T09:42:21;2.88;;;0.85;;
25359;SDS011;13311;51.386;0.016;2023-12-22T09:47:24;5.68;;;0.88;;
25359;SDS011;13311;51.386;0.016;2023-12-22T09:52:29;4.00;;;0.65;;
25359;SDS011;13311;51.386;0.016;2023-12-22T09:57:31;0.77;;;0.45;;
25359;SDS011;13311;51.386;0.016;2023-12-22T10:02:33;2.28;;;0.77;;
25359;SDS011;13311;51.386;0.016;2023-12-22T10:07:36;2.28;;;0.98;;
25359;SDS011;13311;51.386;0.016;2023-12-22T10:12:37;3.58;;;0.93;;
25359;SDS011;13311;51.386;0.016;2023-12-22T10:17:39;2.92;;;0.75;;
25359;SDS011;13311;51.386;0.016;2023-12-22T10:22:44;2.53;;;0.65;;
25359;SDS011;13311;51.386;0.016;2023-12-22T10:27:44;5.00;;;1.02;;
25359;SDS011;13311;51.386;0.016;2023-12-22T10:32:45;3.50;;;1.20;;
25359;SDS011;13311;51.386;0.016;2023-12-22T10:37:46;2.90;;;1.10;;
25359;SDS011;13311;51.386;0.016;2023-12-22T10:42:56;5.22;;;1.10;;
25359;SDS011;13311;51.386;0.016;2023-12-22T10:48:00;4.88;;;1.10;;
25359;SDS011;13311;51.386;0.016;2023-12-22T10:53:05;5.07;;;1.45;;
25359;SDS011;13311;51.386;0.016;2023-12-22T10:58:06;2.78;;;1.02;;
25359;SDS011;13311;51.386;0.016;2023-12-22T11:03:07;2.17;;;0.90;;
25359;SDS011;13311;51.386;0.016;2023-12-22T11:08:13;5.18;;;1.63;;
25359;SDS011;13311;51.386;0.016;2023-12-22T11:13:15;5.95;;;1.70;;
25359;SDS011;13311;51.386;0.016;2023-12-22T11:18:17;5.22;;;1.33;;
25359;SDS011;13311;51.386;0.016;2023-12-22T11:23:19;4.25;;;1.15;;
25359;SDS011;13311;51.386;0.016;2023-12-22T11:28:21;7.50;;;1.33;;
25359;SDS011;13311;51.386;0.016;2023-12-22T11:33:24;8.13;;;1.48;;
25359;SDS011;13311;51.386;0.016;2023-12-22T11:38:27;8.63;;;1.77;;
25359;SDS011;13311;51.386;0.016;2023-12-22T11:43:28;5.55;;;1.42;;
25359;SDS011;13311;51.386;0.016;2023-12-22T11:48:30;4.68;;;1.70;;
25359;SDS011;13311;51.386;0.016;2023-12-22T11:53:31;5.15;;;1.52;;
25359;SDS011;13311;51.386;0.016;2023-12-22T12:03:57;3.00;;;1.00;;
25359;SDS011;13311;51.386;0.016;2023-12-22T12:09:04;3.92;;;1.20;;
25359;SDS011;13311;51.386;0.016;2023-12-22T12:14:10;5.45;;;1.48;;
25359;SDS011;13311;51.386;0.016;2023-12-22T12:19:15;6.65;;;1.40;;
25359;SDS011;13311;51.386;0.016;2023-12-22T12:24:16;3.78;;;1.05;;
25359;SDS011;13311;51.386;0.016;2023-12-22T12:29:17;2.90;;;1.10;;
25359;SDS011;13311;51.386;0.016;2023-12-22T12:34:20;3.53;;;1.30;;
25359;SDS011;13311;51.386;0.016;2023-12-22T12:39:23;3.35;;;1.17;;
25359;SDS011;13311;51.386;0.016;2023-12-22T12:44:31;2.85;;;1.25;;
25359;SDS011;13311;51.386;0.016;2023-12-22T12:49:33;5.93;;;1.60;;
25359;SDS011;13311;51.386;0.016;2023-12-22T12:54:34;4.30;;;1.10;;
25359;SDS011;13311;51.386;0.016;2023-12-22T12:59:34;7.32;;;1.38;;
25359;SDS011;13311;51.386;0.016;2023-12-22T13:04:38;5.68;;;1.48;;
25359;SDS011;13311;51.386;0.016;2023-12-22T13:09:39;3.60;;;1.40;;
25359;SDS011;13311;51.386;0.016;2023-12-22T13:14:42;2.47;;;0.90;;
25359;SDS011;13311;51.386;0.016;2023-12-22T13:19:43;3.63;;;1.20;;
25359;SDS011;13311;51.386;0.016;2023-12-22T13:24:54;5.93;;;1.15;;
25359;SDS011;13311;51.386;0.016;2023-12-22T13:29:56;3.75;;;1.17;;
25359;SDS011;13311;51.386;0.016;2023-12-22T13:34:57;3.30;;;1.25;;
25359;SDS011;13311;51.386;0.016;2023-12-22T13:39:58;3.72;;;1.25;;
25359;SDS011;13311;51.386;0.016;2023-12-22T13:44:59;5.65;;;1.65;;
25359;SDS011;13311;51.386;0.016;2023-12-22T13:50:01;6.65;;;1.35;;
25359;SDS011;13311;51.386;0.016;2023-12-22T13:55:09;4.72;;;1.20;;
25359;SDS011;13311;51.386;0.016;2023-12-22T14:05:21;6.45;;;1.30;;
25359;SDS011;13311;51.386;0.016;2023-12-22T14:10:22;9.40;;;1.38;;
25359;SDS011;13311;51.386;0.016;2023-12-22T14:15:23;5.32;;;1.98;;
25359;SDS011;13311;51.386;0.016;2023-12-22T14:20:24;6.10;;;1.40;;
25359;SDS011;13311;51.386;0.016;2023-12-22T14:25:24;4.18;;;1.17;;
25359;SDS011;13311;51.386;0.016;2023-12-22T14:30:27;2.50;;;1.00;;
25359;SDS011;13311;51.386;0.016;2023-12-22T14:35:27;3.50;;;0.85;;
25359;SDS011;13311;51.386;0.016;2023-12-22T14:40:28;6.97;;;2.10;;
25359;SDS011;13311;51.386;0.016;2023-12-22T14:45:29;3.15;;;1.10;;
25359;SDS011;13311;51.386;0.016;2023-12-22T14:50:30;5.15;;;1.52;;
25359;SDS011;13311;51.386;0.016;2023-12-22T14:55:31;4.65;;;1.40;;
25359;SDS011;13311;51.386;0.016;2023-12-22T15:00:32;3.85;;;1.10;;
25359;SDS011;13311;51.386;0.016;2023-12-22T15:05:33;4.68;;;1.50;;
25359;SDS011;13311;51.386;0.016;2023-12-22T15:10:34;4.32;;;1.70;;
25359;SDS011;13311;51.386;0.016;2023-12-22T15:15:35;3.13;;;0.90;;
25359;SDS011;13311;51.386;0.016;2023-12-22T15:20:35;3.83;;;1.08;;
25359;SDS011;13311;51.386;0.016;2023-12-22T15:25:36;3.70;;;0.93;;
25359;SDS011;13311;51.386;0.016;2023-12-22T15:30:37;4.95;;;1.25;;
25359;SDS011;13311;51.386;0.016;2023-12-22T15:35:39;5.32;;;1.17;;
25359;SDS011;13311;51.386;0.016;2023-12-22T15:40:41;5.18;;;1.52;;
25359;SDS011;13311;51.386;0.016;2023-12-22T15:45:42;8.02;;;1.38;;
25359;SDS011;13311;51.386;0.016;2023-12-22T15:50:43;4.95;;;1.77;;
25359;SDS011;13311;51.386;0.016;2023-12-22T15:55:47;7.13;;;1.50;;
25359;SDS011;13311;51.386;0.016;2023-12-22T16:00:48;3.67;;;1.35;;
25359;SDS011;13311;51.386;0.016;2023-12-22T16:05:49;5.68;;;1.25;;
25359;SDS011;13311;51.386;0.016;2023-12-22T16:10:49;5.70;;;2.53;;
25359;SDS011;13311;51.386;0.016;2023-12-22T16:15:50;4.05;;;1.50;;
25359;SDS011;13311;51.386;0.016;2023-12-22T16:20:51;3.63;;;1.10;;
25359;SDS011;13311;51.386;0.016;2023-12-22T16:25:54;4.35;;;1.83;;
25359;SDS011;13311;51.386;0.016;2023-12-22T16:30:55;9.50;;;1.40;;
25359;SDS011;13311;51.386;0.016;2023-12-22T16:35:56;3.30;;;1.13;;
25359;SDS011;13311;51.386;0.016;2023-12-22T16:40:57;4.15;;;1.35;;
25359;SDS011;13311;51.386;0.016;2023-12-22T16:46:04;5.00;;;1.20;;
25359;SDS011;13311;51.386;0.016;2023-12-22T16:51:08;7.70;;;1.40;;
25359;SDS011;13311;51.386;0.016;2023-12-22T16:56:11;5.35;;;1.67;;
25359;SDS011;13311;51.386;0.016;2023-12-22T17:01:12;7.85;;;1.77;;
25359;SDS011;13311;51.386;0.016;2023-12-22T17:06:15;4.63;;;1.30;;
25359;SDS011;13311;51.386;0.016;2023-12-22T17:11:16;4.22;;;1.13;;
25359;SDS011;13311;51.386;0.016;2023-12-22T17:16:16;3.78;;;1.30;;
25359;SDS011;13311;51.386;0.016;2023-12-22T17:21:17;3.42;;;0.95;;
25359;SDS011;13311;51.386;0.016;2023-12-22T17:26:18;2.72;;;0.98;;
25359;SDS011;13311;51.386;0.016;2023-12-22T17:31:19;2.72;;;0.95;;
25359;SDS011;13311;51.386;0.016;2023-12-22T17:36:20;3.60;;;1.15;;
25359;SDS011;13311;51.386;0.016;2023-12-22T17:41:21;4.03;;;1.10;;
25359;SDS011;13311;51.386;0.016;2023-12-22T17:46:22;7.65;;;1.60;;
25359;SDS011;13311;51.386;0.016;2023-12-22T17:51:23;2.92;;;1.05;;
25359;SDS011;13311;51.386;0.016;2023-12-22T17:56:24;3.15;;;1.13;;
25359;SDS011;13311;51.386;0.016;2023-12-22T18:01:25;10.45;;;1.63;;
25359;SDS011;13311;51.386;0.016;2023-12-22T18:06:25;6.22;;;1.77;;
25359;SDS011;13311;51.386;0.016;2023-12-22T18:11:26;5.03;;;1.58;;
25359;SDS011;13311;51.386;0.016;2023-12-22T18:16:28;5.35;;;1.30;;
25359;SDS011;13311;51.386;0.016;2023-12-22T18:21:29;4.90;;;1.10;;
25359;SDS011;13311;51.386;0.016;2023-12-22T18:26:30;8.85;;;1.23;;
25359;SDS011;13311;51.386;0.016;2023-12-22T18:31:31;8.73;;;1.63;;
25359;SDS011;13311;51.386;0.016;2023-12-22T18:36:31;7.20;;;1.73;;
25359;SDS011;13311;51.386;0.016;2023-12-22T18:41:32;3.42;;;1.08;;
25359;SDS011;13311;51.386;0.016;2023-12-22T18:46:33;7.30;;;1.77;;
25359;SDS011;13311;51.386;0.016;2023-12-22T18:51:33;7.82;;;2.00;;
25359;SDS011;13311;51.386;0.016;2023-12-22T18:56:34;5.60;;;1.25;;
25359;SDS011;13311;51.386;0.016;2023-12-22T19:01:35;4.60;;;1.42;;
25359;SDS011;13311;51.386;0.016;2023-12-22T19:06:36;3.90;;;1.27;;
25359;SDS011;13311;51.386;0.016;2023-12-22T19:11:36;4.40;;;1.30;;
25359;SDS011;13311;51.386;0.016;2023-12-22T19:16:38;4.43;;;1.45;;
25359;SDS011;13311;51.386;0.016;2023-12-22T19:21:38;3.30;;;1.40;;
25359;SDS011;13311;51.386;0.016;2023-12-22T19:26:39;9.57;;;3.17;;
25359;SDS011;13311;51.386;0.016;2023-12-22T19:31:41;5.07;;;1.98;;
25359;SDS011;13311;51.386;0.016;2023-12-22T19:36:42;4.22;;;1.83;;
25359;SDS011;13311;51.386;0.016;2023-12-22T19:41:42;5.30;;;2.22;;
25359;SDS011;13311;51.386;0.016;2023-12-22T19:46:44;3.88;;;1.73;;
25359;SDS011;13311;51.386;0.016;2023-12-22T19:51:44;6.43;;;1.90;;
25359;SDS011;13311;51.386;0.016;2023-12-22T19:56:45;6.60;;;1.75;;
25359;SDS011;13311;51.386;0.016;2023-12-22T20:01:46;5.60;;;1.83;;
25359;SDS011;13311;51.386;0.016;2023-12-22T20:06:46;4.03;;;1.73;;
25359;SDS011;13311;51.386;0.016;2023-12-22T20:11:47;7.15;;;1.30;;
25359;SDS011;13311;51.386;0.016;2023-12-22T20:16:48;4.45;;;1.30;;
25359;SDS011;13311;51.386;0.016;2023-12-22T20:21:49;5.38;;;1.15;;
25359;SDS011;13311;51.386;0.016;2023-12-22T20:26:50;6.93;;;1.95;;
25359;SDS011;13311;51.386;0.016;2023-12-22T20:31:50;8.45;;;2.15;;
25359;SDS011;13311;51.386;0.016;2023-12-22T20:36:52;13.60;;;2.58;;
25359;SDS011;13311;51.386;0.016;2023-12-22T20:41:52;4.88;;;1.40;;
25359;SDS011;13311;51.386;0.016;2023-12-22T20:46:53;7.68;;;1.90;;
25359;SDS011;13311;51.386;0.016;2023-12-22T20:51:54;4.00;;;1.70;;
25359;SDS011;13311;51.386;0.016;2023-12-22T20:56:56;5.57;;;1.80;;
25359;SDS011;13311;51.386;0.016;2023-12-22T21:01:57;6.25;;;1.20;;
25359;SDS011;13311;51.386;0.016;2023-12-22T21:06:58;3.35;;;1.33;;
25359;SDS011;13311;51.386;0.016;2023-12-22T21:11:59;5.60;;;1.77;;
25359;SDS011;13311;51.386;0.016;2023-12-22T21:16:59;4.47;;;1.50;;
25359;SDS011;13311;51.386;0.016;2023-12-22T21:22:00;5.30;;;1.40;;
25359;SDS011;13311;51.386;0.016;2023-12-22T21:27:01;5.18;;;1.75;;
25359;SDS011;13311;51.386;0.016;2023-12-22T21:32:02;6.10;;;1.75;;
25359;SDS011;13311;51.386;0.016;2023-12-22T21:37:03;2.58;;;1.23;;
25359;SDS011;13311;51.386;0.016;2023-12-22T21:42:03;5.13;;;1.20;;
25359;SDS011;13311;51.386;0.016;2023-12-22T21:47:04;5.45;;;1.70;;
25359;SDS011;13311;51.386;0.016;2023-12-22T21:52:05;4.93;;;1.70;;
25359;SDS011;13311;51.386;0.016;2023-12-22T21:57:06;7.82;;;2.15;;
25359;SDS011;13311;51.386;0.016;2023-12-22T22:02:07;10.43;;;3.08;;
25359;SDS011;13311;51.386;0.016;2023-12-22T22:07:08;5.25;;;1.88;;
25359;SDS011;13311;51.386;0.016;2023-12-22T22:12:12;6.88;;;2.40;;
25359;SDS011;13311;51.386;0.016;2023-12-22T22:17:13;5.47;;;1.80;;
25359;SDS011;13311;51.386;0.016;2023-12-22T22:22:13;4.82;;;1.98;;
25359;SDS011;13311;51.386;0.016;2023-12-22T22:27:14;6.55;;;2.28;;
25359;SDS011;13311;51.386;0.016;2023-12-22T22:32:15;5.70;;;1.80;;
25359;SDS011;13311;51.386;0.016;2023-12-22T22:37:16;10.40;;;2.60;;
25359;SDS011;13311;51.386;0.016;2023-12-22T22:42:17;4.72;;;1.38;;
25359;SDS011;13311;51.386;0.016;2023-12-22T22:47:18;4.53;;;1.58;;
25359;SDS011;13311;51.386;0.016;2023-12-22T22:52:19;5.65;;;1.95;;
25359;SDS011;13311;51.386;0.016;2023-12-22T22:57:20;3.47;;;1.35;;
25359;SDS011;13311;51.386;0.016;2023-12-22T23:02:22;4.25;;;1.98;;
25359;SDS011;13311;51.386;0.016;2023-12-22T23:07:22;8.77;;;1.80;;
25359;SDS011;13311;51.386;0.016;2023-12-22T23:12:23;6.43;;;1.70;;
25359;SDS011;13311;51.386;0.016;2023-12-22T23:17:24;7.22;;;1.77;;
25359;SDS011;13311;51.386;0.016;2023-12-22T23:22:24;7.40;;;1.67;;
25359;SDS011;13311;51.386;0.016;2023-12-22T23:27:26;6.43;;;1.85;;
25359;SDS011;13311;51.386;0.016;2023-12-22T23:32:27;3.03;;;1.30;;
25359;SDS011;13311;51.386;0.016;2023-12-22T23:37:28;7.53;;;2.03;;
25359;SDS011;13311;51.386;0.016;2023-12-22T23:42:29;8.35;;;2.13;;
25359;SDS011;13311;51.386;0.016;2023-12-22T23:47:30;6.63;;;1.88;;
25359;SDS011;13311;51.386;0.016;2023-12-22T23:52:32;5.18;;;1.95;;
25359;SDS011;13311;51.386;0.016;2023-12-22T23:57:33;7.47;;;2.42;;
